Robstown, TX

2:05 PM CDT on August 30, 2016 (GMT -0500)
| | Change Station
Active Advisory: Coastal Flood Advisory

Elev -9999 ft 0.00 °N, 0.00 °E | Updated

Thunderstorm
Thunderstorm
83 °F
Feels Like 90 °F
N
11
Wind Variable Wind from ENE
Gusts mph

Today
High -- | Low -- °F
--% Chance of Precip.
Yesterday
High -- | Low -- °F
Precip. -- in
Pressure 29.93 in
Visibility 10.0 miles
Clouds Scattered Clouds 1400 ft
Scattered Clouds 8500 ft
Heat Index 90 °F
Dew Point 75 °F
Humidity 78%
Rainfall --
Snow Depth Not available.
7:08 AM 7:52 PM
Waning Crescent, 3% visible
METAR KRBO 301855Z AUTO 07007KT 10SM SCT014 SCT085 28/24 A2993 RMK AO2 T02760242
Pressure 29.93 in
Visibility 10.0 miles
Clouds Scattered Clouds 1400 ft
Scattered Clouds 8500 ft
Heat Index 90 °F
Dew Point 75 °F
Humidity 78%
Rainfall --
Snow Depth Not available.
7:08 AM 7:52 PM
Waning Crescent, 3% visible
METAR KRBO 301855Z AUTO 07007KT 10SM SCT014 SCT085 28/24 A2993 RMK AO2 T02760242

10-Day Weather Forecast

Almanac

Astronomy

Aug. 30, 2016 Rise Set
Actual Time
Civil Twilight
Nautical Twilight
Astronomical Twilight
Moon
Length of Visible Light
Length of Day
Tomorrow will be .
, % of the Moon is Illuminated

Today's Extremes

State Highs State Lows

Community

WunderPhotos

Upload Photos

1,935,879 photos uploaded!

WunderBlog® & News

Nearby

Air Quality

  Air Quality AQ Index Pollutant
Not available.

Snow Depth

Station Depth Elevation

Earthquake Activity

City Distance Mag. Time & Date
Minimum magnitude displayed is 2.5.

Coastal Water Temperatures

Place Temperature

Stations

Nearby Weather Stations

Station Location Temp. Windchill Dew Point Humidity Wind Precip. Elev Updated Type
                   

Watches & Warnings

Coastal Flood Advisory
Issued: 4:44 AM CDT Aug. 30, 2016 – National Weather Service

... Coastal Flood Advisory remains in effect until 4 PM CDT this
afternoon...

* coastal flooding... tide levels near or just above 2 feet mean
sea level around the time of high tide.

* Timing... the next high tide at Port Aransas will occur around
1231 PM.

* Impacts... at 2 feet above mean sea level... several beach
access roads become flooded. Minor flooding along area beaches
may occur. Steady periods of water at the dunes may occur.
Water may flood portions of Laguna shores drive in Flour
Bluff. North Beach may experience minor flooding.

Precautionary/preparedness actions...

A coastal Flood Advisory indicates that onshore winds and tides
will combine to generate flooding of low areas along the shore.



87